createdAt,value
2023-03-07T00:01:54.154Z,98541.59
2023-03-07T00:04:20.697Z,98549.31
2023-03-07T00:06:47.164Z,98541.41
2023-03-07T00:09:13.604Z,98541.56
2023-03-07T00:11:40.117Z,98536.38
2023-03-07T00:14:08.347Z,98537.03
2023-03-07T00:16:34.928Z,98539.97
2023-03-07T00:19:01.444Z,98534.84
2023-03-07T00:21:31.525Z,98527.25
2023-03-07T00:23:58.577Z,98530.50
2023-03-07T00:26:28.161Z,98533.88
2023-03-07T00:28:55.838Z,98531.63
2023-03-07T00:31:24.444Z,98528.06
2023-03-07T00:33:52.053Z,98534.03
2023-03-07T00:36:21.819Z,98526.72
2023-03-07T00:38:48.926Z,98523.31
2023-03-07T00:41:18.496Z,98519.94
2023-03-07T00:43:47.044Z,98515.75
2023-03-07T00:46:15.413Z,98506.22
2023-03-07T00:48:42.110Z,98506.09
2023-03-07T00:51:10.874Z,98503.16
2023-03-07T00:53:38.026Z,98496.28
2023-03-07T00:56:17.265Z,98495.97
2023-03-07T00:58:44.176Z,98494.31
2023-03-07T01:01:12.200Z,98486.78
2023-03-07T01:03:38.968Z,98491.78
2023-03-07T01:06:07.787Z,98489.84
2023-03-07T01:08:34.753Z,98481.63
2023-03-07T01:11:03.001Z,98481.28
2023-03-07T01:13:29.664Z,98475.84
2023-03-07T01:15:56.260Z,98471.31
2023-03-07T01:18:22.709Z,98465.97
2023-03-07T01:20:49.326Z,98460.81
2023-03-07T01:23:16.001Z,98458.38
2023-03-07T01:25:43.170Z,98455.16
2023-03-07T01:28:13.137Z,98458.81
2023-03-07T01:30:39.545Z,98453.47
2023-03-07T01:33:06.154Z,98448.44
2023-03-07T01:35:39.988Z,98443.28
2023-03-07T01:38:06.488Z,98434.75
2023-03-07T01:40:33.098Z,98426.03
2023-03-07T01:43:38.142Z,98421.34
2023-03-07T01:46:33.774Z,98420.63
2023-03-07T01:49:05.101Z,98410.16
2023-03-07T01:51:32.950Z,98411.25
2023-03-07T01:54:01.030Z,98407.28
2023-03-07T01:56:28.065Z,98399.06
2023-03-07T01:58:55.435Z,98400.44
2023-03-07T02:01:22.710Z,98392.59
2023-03-07T02:03:55.635Z,98389.00
2023-03-07T02:06:22.674Z,98390.13
2023-03-07T02:08:50.620Z,98391.66
2023-03-07T02:11:17.366Z,98389.44
2023-03-07T02:13:44.341Z,98385.91
2023-03-07T02:16:11.602Z,98381.75
2023-03-07T02:18:48.046Z,98386.28
2023-03-07T02:21:34.169Z,98383.56
2023-03-07T02:24:08.317Z,98375.97
2023-03-07T02:26:42.958Z,98371.91
2023-03-07T02:29:10.003Z,98374.00
2023-03-07T02:31:36.552Z,98371.72
2023-03-07T02:34:03.556Z,98364.78
2023-03-07T02:36:32.940Z,98365.56
2023-03-07T02:39:01.991Z,98356.19
2023-03-07T02:41:30.274Z,98356.81
2023-03-07T02:43:57.636Z,98365.03
2023-03-07T02:46:24.197Z,98354.91
2023-03-07T02:48:50.813Z,98354.19
2023-03-07T02:51:17.365Z,98349.50
2023-03-07T02:53:44.059Z,98338.38
2023-03-07T02:56:11.248Z,98339.16
2023-03-07T02:58:37.765Z,98337.63
2023-03-07T03:01:04.506Z,98332.41
2023-03-07T03:03:31.562Z,98322.16
2023-03-07T03:05:58.146Z,98311.66
2023-03-07T03:08:24.931Z,98308.47
2023-03-07T03:10:54.848Z,98302.66
2023-03-07T03:13:21.675Z,98293.63
2023-03-07T03:15:49.012Z,98296.81
2023-03-07T03:18:15.870Z,98297.16
2023-03-07T03:20:42.812Z,98296.31
2023-03-07T03:23:09.411Z,98300.66
2023-03-07T03:25:35.979Z,98294.16
2023-03-07T03:28:02.551Z,98288.13
2023-03-07T03:30:32.329Z,98292.63
2023-03-07T03:32:58.891Z,98288.81
2023-03-07T03:35:25.880Z,98280.69
2023-03-07T03:37:52.421Z,98281.84
2023-03-07T03:40:19.014Z,98274.59
2023-03-07T03:42:45.651Z,98272.88
2023-03-07T03:45:12.694Z,98274.34
2023-03-07T03:47:39.233Z,98274.09
2023-03-07T03:50:06.210Z,98269.00
2023-03-07T03:52:32.678Z,98271.88
2023-03-07T03:54:59.078Z,98263.16
2023-03-07T03:57:25.557Z,98259.75
2023-03-07T03:59:52.427Z,98257.22
2023-03-07T04:02:18.980Z,98251.59
2023-03-07T04:04:45.538Z,98249.56
2023-03-07T04:07:11.934Z,98257.13
2023-03-07T04:09:38.596Z,98255.97
2023-03-07T04:12:05.187Z,98244.88
2023-03-07T04:14:31.728Z,98245.34
2023-03-07T04:16:58.273Z,98238.47
2023-03-07T04:19:24.690Z,98234.03
2023-03-07T04:21:51.215Z,98226.13
2023-03-07T04:24:17.631Z,98220.44
2023-03-07T04:26:44.064Z,98222.50
2023-03-07T04:29:10.516Z,98218.19
2023-03-07T04:31:37.113Z,98202.38
2023-03-07T04:34:03.550Z,98204.34
2023-03-07T04:36:29.984Z,98199.44
2023-03-07T04:38:56.430Z,98197.38
2023-03-07T04:41:26.104Z,98201.16
2023-03-07T04:43:52.666Z,98185.91
2023-03-07T04:46:19.566Z,98183.50
2023-03-07T04:48:46.817Z,98183.63
2023-03-07T04:51:13.449Z,98185.13
2023-03-07T04:53:40.168Z,98172.44
2023-03-07T04:56:08.627Z,98171.50
2023-03-07T04:58:35.742Z,98175.16
2023-03-07T05:01:03.391Z,98166.94
2023-03-07T05:03:29.968Z,98160.75
2023-03-07T05:06:02.171Z,98170.03
2023-03-07T05:08:28.916Z,98159.50
2023-03-07T05:10:55.482Z,98167.97
2023-03-07T05:13:22.310Z,98165.81
2023-03-07T05:15:52.959Z,98167.41
2023-03-07T05:18:19.582Z,98157.00
2023-03-07T05:20:46.511Z,98160.44
2023-03-07T05:23:12.927Z,98154.94
2023-03-07T05:25:39.482Z,98156.31
2023-03-07T05:28:06.202Z,98148.63
2023-03-07T05:30:32.812Z,98159.38
2023-03-07T05:32:59.306Z,98146.44
2023-03-07T05:35:26.151Z,98144.84
2023-03-07T05:37:52.872Z,98138.19
2023-03-07T05:40:19.560Z,98150.00
2023-03-07T05:42:46.345Z,98143.38
2023-03-07T05:45:13.512Z,98148.28
2023-03-07T05:47:39.919Z,98135.22
2023-03-07T05:50:07.540Z,98142.81
2023-03-07T05:52:34.176Z,98140.28
2023-03-07T05:55:00.697Z,98132.13
2023-03-07T05:57:27.225Z,98138.66
2023-03-07T05:59:53.737Z,98130.06
2023-03-07T06:02:20.472Z,98134.50
2023-03-07T06:04:47.176Z,98134.47
2023-03-07T06:07:14.000Z,98129.41
2023-03-07T06:09:40.433Z,98132.75
2023-03-07T06:12:08.171Z,98137.22
2023-03-07T06:14:34.549Z,98134.59
2023-03-07T06:17:02.415Z,98133.13
2023-03-07T06:19:28.974Z,98133.91
2023-03-07T06:21:55.467Z,98138.03
2023-03-07T06:24:22.197Z,98134.00
2023-03-07T06:26:48.975Z,98133.22
2023-03-07T06:29:15.463Z,98133.91
2023-03-07T06:31:42.136Z,98141.00
2023-03-07T06:34:08.749Z,98138.81
2023-03-07T06:36:35.380Z,98140.53
2023-03-07T06:39:01.814Z,98132.53
2023-03-07T06:41:28.529Z,98137.31
2023-03-07T06:43:54.986Z,98137.53
2023-03-07T06:46:21.729Z,98138.31
2023-03-07T06:48:48.278Z,98138.31
2023-03-07T06:51:14.725Z,98140.47
2023-03-07T06:53:41.280Z,98138.22
2023-03-07T06:56:07.770Z,98142.13
2023-03-07T06:58:34.358Z,98145.69
2023-03-07T07:01:01.847Z,98139.56
2023-03-07T07:03:28.350Z,98140.72
2023-03-07T07:05:54.888Z,98124.44
2023-03-07T07:08:21.384Z,98134.28
2023-03-07T07:10:47.994Z,98128.88
2023-03-07T07:13:15.083Z,98127.94
2023-03-07T07:15:41.742Z,98127.34
2023-03-07T07:18:10.462Z,98123.09
2023-03-07T07:20:37.932Z,98127.63
2023-03-07T07:23:04.559Z,98124.09
2023-03-07T07:25:30.975Z,98130.84
2023-03-07T07:27:57.439Z,98125.44
2023-03-07T07:30:24.070Z,98116.19
2023-03-07T07:32:50.778Z,98124.66
2023-03-07T07:35:17.324Z,98126.44
2023-03-07T07:37:43.768Z,98132.28
2023-03-07T07:40:10.955Z,98123.91
2023-03-07T07:42:37.678Z,98127.88
2023-03-07T07:45:05.853Z,98132.16
2023-03-07T07:47:32.330Z,98139.25
2023-03-07T07:49:58.830Z,98130.19
2023-03-07T07:52:25.277Z,98124.69
2023-03-07T07:54:51.748Z,98132.59
2023-03-07T07:57:18.224Z,98126.47
2023-03-07T07:59:44.681Z,98127.97
2023-03-07T08:02:13.544Z,98124.78
2023-03-07T08:04:40.300Z,98127.28
2023-03-07T08:07:07.370Z,98118.28
2023-03-07T08:09:35.149Z,98128.50
2023-03-07T08:12:01.688Z,98116.69
2023-03-07T08:14:28.223Z,98119.97
2023-03-07T08:16:54.714Z,98126.13
2023-03-07T08:19:21.140Z,98112.59
2023-03-07T08:21:47.581Z,98120.34
2023-03-07T08:24:14.040Z,98106.38
2023-03-07T08:26:40.765Z,98110.44
2023-03-07T08:29:07.739Z,98107.97
2023-03-07T08:31:34.241Z,98098.63
2023-03-07T08:34:01.322Z,98108.13
2023-03-07T08:36:27.919Z,98109.63
2023-03-07T08:38:54.414Z,98104.00
2023-03-07T08:41:23.038Z,98104.88
2023-03-07T08:43:49.872Z,98106.34
2023-03-07T08:46:16.756Z,98102.50
2023-03-07T08:48:43.213Z,98107.72
2023-03-07T08:51:12.636Z,98106.13
2023-03-07T08:53:39.137Z,98109.03
2023-03-07T08:56:17.398Z,98109.91
2023-03-07T08:58:44.132Z,98104.22
2023-03-07T09:01:11.257Z,98100.38
2023-03-07T09:03:37.689Z,98111.78
2023-03-07T09:06:05.240Z,98106.34
2023-03-07T09:08:32.273Z,98109.53
2023-03-07T09:11:00.765Z,98108.31
2023-03-07T09:13:27.297Z,98115.13
2023-03-07T09:15:53.906Z,98102.78
2023-03-07T09:18:22.898Z,98108.00
2023-03-07T09:20:49.480Z,98106.84
2023-03-07T09:23:16.111Z,98118.75
2023-03-07T09:25:44.369Z,98099.09
2023-03-07T09:28:10.841Z,98095.16
2023-03-07T09:30:37.997Z,98096.47
2023-03-07T09:33:04.524Z,98089.50
2023-03-07T09:35:31.135Z,98090.03
2023-03-07T09:37:58.001Z,98099.69
2023-03-07T09:40:26.340Z,98080.06
2023-03-07T09:43:21.616Z,98076.44
2023-03-07T09:46:09.375Z,98067.75
2023-03-07T09:48:47.941Z,98069.81
2023-03-07T09:51:24.532Z,98070.56
2023-03-07T09:54:10.211Z,98076.06
2023-03-07T09:56:57.916Z,98063.88
2023-03-07T09:59:36.623Z,98070.16
2023-03-07T10:02:16.513Z,98061.81
2023-03-07T10:04:55.117Z,98062.47
2023-03-07T10:07:24.678Z,98055.22
2023-03-07T10:09:55.679Z,98054.97
2023-03-07T10:12:31.195Z,98056.50
2023-03-07T10:15:18.424Z,98052.94
2023-03-07T10:17:57.280Z,98061.44
2023-03-07T10:20:38.912Z,98055.03
2023-03-07T10:23:24.253Z,98050.13
2023-03-07T10:25:54.170Z,98058.72
2023-03-07T10:28:24.131Z,98051.03
2023-03-07T10:30:52.604Z,98046.56
2023-03-07T10:33:20.071Z,98061.75
2023-03-07T10:36:23.255Z,98038.91
2023-03-07T10:38:56.176Z,98045.66
2023-03-07T10:41:23.138Z,98040.13
2023-03-07T10:43:51.203Z,98036.94
2023-03-07T10:46:25.921Z,98033.91
2023-03-07T10:48:55.919Z,98051.41
2023-03-07T10:51:28.498Z,98025.34
2023-03-07T10:53:56.203Z,98035.63
2023-03-07T10:56:23.104Z,98020.06
2023-03-07T10:59:09.776Z,98022.25
2023-03-07T11:01:38.289Z,98014.13
2023-03-07T11:04:22.268Z,98005.09
2023-03-07T11:06:59.481Z,97995.19
2023-03-07T11:09:30.136Z,97980.72
2023-03-07T11:12:10.369Z,97991.44
2023-03-07T11:15:11.077Z,97984.84
2023-03-07T11:17:41.969Z,97975.28
2023-03-07T11:20:47.700Z,97970.69
2023-03-07T11:23:23.304Z,97973.56
2023-03-07T11:25:55.064Z,97971.41
2023-03-07T11:28:35.126Z,97958.38
2023-03-07T11:31:19.324Z,97949.19
2023-03-07T11:34:08.795Z,97947.34
2023-03-07T11:36:36.934Z,97940.78
2023-03-07T11:39:07.670Z,97946.28
2023-03-07T11:41:37.970Z,97962.09
2023-03-07T11:44:18.645Z,97956.31
2023-03-07T11:46:54.899Z,97936.09
2023-03-07T11:49:30.281Z,97955.78
2023-03-07T11:52:22.034Z,97951.75
2023-03-07T11:55:02.289Z,97950.56
2023-03-07T11:58:10.411Z,97921.13
2023-03-07T12:00:52.509Z,97934.78
2023-03-07T12:03:18.972Z,97931.41
2023-03-07T12:05:57.720Z,97929.91
2023-03-07T12:08:43.622Z,97925.84
2023-03-07T12:11:32.601Z,97920.69
2023-03-07T12:14:06.601Z,97921.00
2023-03-07T12:16:39.868Z,97924.50
2023-03-07T12:19:32.696Z,97903.19
2023-03-07T12:22:09.210Z,97908.84
2023-03-07T12:24:38.491Z,97920.41
2023-03-07T12:27:26.523Z,97906.16
2023-03-07T12:30:17.576Z,97895.72
2023-03-07T12:32:45.141Z,97899.63
2023-03-07T12:35:17.413Z,97903.22
2023-03-07T12:37:50.999Z,97895.03
2023-03-07T12:40:17.615Z,97893.53
2023-03-07T12:42:57.231Z,97895.91
2023-03-07T12:45:27.404Z,97883.34
2023-03-07T12:47:54.122Z,97880.66
2023-03-07T12:50:23.952Z,97888.13
2023-03-07T12:52:55.347Z,97882.69
2023-03-07T12:55:22.075Z,97887.63
2023-03-07T12:58:13.470Z,97866.94
2023-03-07T13:00:45.368Z,97881.88
2023-03-07T13:03:20.298Z,97887.31
2023-03-07T13:05:47.412Z,97872.38
2023-03-07T13:08:22.056Z,97879.63
2023-03-07T13:10:48.549Z,97860.19
2023-03-07T13:13:44.559Z,97876.00
2023-03-07T13:16:13.478Z,97882.19
2023-03-07T13:18:39.896Z,97893.19
2023-03-07T13:21:15.537Z,97878.84
2023-03-07T13:23:42.057Z,97876.50
2023-03-07T13:26:11.197Z,97875.84
2023-03-07T13:28:45.619Z,97869.84
2023-03-07T13:31:20.993Z,97871.88
2023-03-07T13:33:48.036Z,97863.06
2023-03-07T13:36:38.611Z,97882.06
2023-03-07T13:39:37.203Z,97866.31
2023-03-07T13:42:03.995Z,97858.47
2023-03-07T13:44:40.945Z,97850.47
2023-03-07T13:47:42.922Z,97845.00
2023-03-07T13:50:34.623Z,97846.38
2023-03-07T13:53:20.631Z,97831.03
2023-03-07T13:55:50.920Z,97849.53
2023-03-07T13:58:28.758Z,97851.94
2023-03-07T14:01:04.202Z,97848.25
2023-03-07T14:03:39.342Z,97856.28
2023-03-07T14:06:34.021Z,97851.47
2023-03-07T14:09:02.732Z,97856.56
2023-03-07T14:11:50.794Z,97849.50
2023-03-07T14:14:29.283Z,97862.19
2023-03-07T14:17:14.538Z,97862.56
2023-03-07T14:20:21.089Z,97851.81
2023-03-07T14:23:07.423Z,97859.97
2023-03-07T14:25:38.997Z,97846.06
2023-03-07T14:28:28.693Z,97854.00
2023-03-07T14:31:05.616Z,97846.84
2023-03-07T14:33:37.965Z,97849.19
2023-03-07T14:36:16.819Z,97844.47
2023-03-07T14:38:44.542Z,97863.38
2023-03-07T14:41:37.865Z,97855.06
2023-03-07T14:44:32.323Z,97854.75
2023-03-07T14:47:22.975Z,97835.81
2023-03-07T14:50:06.095Z,97855.53
2023-03-07T14:52:33.152Z,97848.50
2023-03-07T14:55:02.235Z,97848.44
2023-03-07T14:57:33.285Z,97847.25
2023-03-07T15:00:25.052Z,97856.59
2023-03-07T15:02:54.487Z,97853.03
2023-03-07T15:05:28.677Z,97853.06
2023-03-07T15:07:55.320Z,97859.34
2023-03-07T15:10:27.239Z,97847.81
2023-03-07T15:12:55.015Z,97857.66
2023-03-07T15:15:45.415Z,97855.59
2023-03-07T15:18:20.997Z,97852.81
2023-03-07T15:20:48.027Z,97853.97
2023-03-07T15:23:24.088Z,97857.50
2023-03-07T15:26:05.286Z,97850.06
2023-03-07T15:28:37.138Z,97850.13
2023-03-07T15:31:04.911Z,97852.50
2023-03-07T15:33:32.928Z,97856.81
2023-03-07T15:36:17.936Z,97863.53
2023-03-07T15:39:22.337Z,97855.16
2023-03-07T15:42:02.920Z,97857.13
2023-03-07T15:44:29.475Z,97863.78
2023-03-07T15:46:57.900Z,97844.75
2023-03-07T15:49:37.610Z,97855.84
2023-03-07T15:52:04.611Z,97847.25
2023-03-07T15:54:43.323Z,97863.06
2023-03-07T15:57:24.705Z,97853.47
2023-03-07T16:00:00.142Z,97829.25
2023-03-07T16:02:32.860Z,97851.81
2023-03-07T16:05:04.750Z,97851.34
2023-03-07T16:07:31.463Z,97852.09
2023-03-07T16:09:57.964Z,97846.53
2023-03-07T16:12:25.272Z,97856.00
2023-03-07T16:14:53.317Z,97850.47
2023-03-07T16:17:21.519Z,97853.63
2023-03-07T16:19:48.057Z,97851.63
2023-03-07T16:22:16.892Z,97849.66
2023-03-07T16:24:43.439Z,97850.03
2023-03-07T16:27:16.318Z,97843.66
2023-03-07T16:29:43.286Z,97843.28
2023-03-07T16:32:13.291Z,97855.16
2023-03-07T16:34:40.321Z,97842.53
2023-03-07T16:37:07.185Z,97859.50
2023-03-07T16:39:33.875Z,97857.91
2023-03-07T16:42:00.569Z,97875.75
2023-03-07T16:44:28.359Z,97877.72
2023-03-07T16:47:03.790Z,97887.59
2023-03-07T16:49:30.355Z,97887.78
2023-03-07T16:52:05.561Z,97901.06
2023-03-07T16:54:33.487Z,97902.84
2023-03-07T16:57:01.459Z,97921.28
2023-03-07T16:59:34.630Z,97926.47
2023-03-07T17:02:01.705Z,97939.38
2023-03-07T17:04:28.260Z,97935.31
2023-03-07T17:07:04.434Z,97943.94
2023-03-07T17:09:31.573Z,97950.94
2023-03-07T17:11:58.326Z,97957.22
2023-03-07T17:14:24.964Z,97967.00
2023-03-07T17:16:51.500Z,97971.28
2023-03-07T17:19:29.520Z,97979.63
2023-03-07T17:21:58.557Z,97990.19
2023-03-07T17:24:26.272Z,97985.19
2023-03-07T17:26:53.851Z,97981.44
2023-03-07T17:29:31.361Z,97998.94
2023-03-07T17:31:57.880Z,98012.59
2023-03-07T17:34:29.157Z,98006.44
2023-03-07T17:36:56.279Z,98015.41
2023-03-07T17:39:23.326Z,98028.44
2023-03-07T17:41:49.973Z,98035.88
2023-03-07T17:44:18.072Z,98040.78
2023-03-07T17:46:44.824Z,98045.94
2023-03-07T17:49:11.727Z,98029.22
2023-03-07T17:51:38.448Z,98040.59
2023-03-07T17:54:10.573Z,98043.56
2023-03-07T17:56:37.355Z,98043.94
2023-03-07T17:59:05.162Z,98040.88
2023-03-07T18:01:33.718Z,98042.13
2023-03-07T18:04:01.928Z,98050.72
2023-03-07T18:06:28.635Z,98052.44
2023-03-07T18:08:55.361Z,98054.06
2023-03-07T18:11:21.880Z,98048.66
2023-03-07T18:13:48.456Z,98051.66
2023-03-07T18:16:15.036Z,98044.34
2023-03-07T18:18:57.749Z,98050.28
2023-03-07T18:21:25.124Z,98044.91
2023-03-07T18:23:52.194Z,98034.59
2023-03-07T18:26:19.748Z,98036.91
2023-03-07T18:28:47.675Z,98045.69
2023-03-07T18:31:19.361Z,98044.91
2023-03-07T18:33:52.490Z,98052.03
2023-03-07T18:36:21.219Z,98052.94
2023-03-07T18:38:48.098Z,98063.81
2023-03-07T18:41:25.379Z,98061.63
2023-03-07T18:43:56.629Z,98063.03
2023-03-07T18:46:25.113Z,98053.19
2023-03-07T18:48:51.793Z,98068.06
2023-03-07T18:51:24.739Z,98066.78
2023-03-07T18:53:57.206Z,98067.91
2023-03-07T18:56:24.276Z,98070.66
2023-03-07T18:58:55.699Z,98057.06
2023-03-07T19:01:31.051Z,98056.03
2023-03-07T19:04:00.731Z,98069.97
2023-03-07T19:06:34.619Z,98066.44
2023-03-07T19:09:02.987Z,98074.56
2023-03-07T19:11:30.132Z,98071.34
2023-03-07T19:13:56.661Z,98075.03
2023-03-07T19:16:26.776Z,98070.78
2023-03-07T19:18:53.976Z,98070.44
2023-03-07T19:21:22.993Z,98080.59
2023-03-07T19:23:52.046Z,98077.28
2023-03-07T19:26:20.162Z,98072.38
2023-03-07T19:28:48.266Z,98079.09
2023-03-07T19:31:17.391Z,98084.38
2023-03-07T19:33:44.923Z,98088.59
2023-03-07T19:36:14.626Z,98078.06
2023-03-07T19:38:41.971Z,98081.31
2023-03-07T19:41:13.666Z,98084.69
2023-03-07T19:43:40.497Z,98079.50
2023-03-07T19:46:09.093Z,98083.03
2023-03-07T19:48:36.241Z,98071.63
2023-03-07T19:51:03.929Z,98074.13
2023-03-07T19:53:30.669Z,98073.09
2023-03-07T19:55:57.581Z,98071.13
2023-03-07T19:58:24.190Z,98071.00
2023-03-07T20:00:50.601Z,98061.75
2023-03-07T20:03:18.922Z,98068.59
2023-03-07T20:05:48.525Z,98068.38
2023-03-07T20:08:15.910Z,98064.59
2023-03-07T20:10:42.738Z,98073.63
2023-03-07T20:13:09.373Z,98069.41
2023-03-07T20:15:36.626Z,98068.59
2023-03-07T20:18:05.812Z,98076.13
2023-03-07T20:20:35.361Z,98071.22
2023-03-07T20:23:02.048Z,98071.00
2023-03-07T20:25:29.833Z,98071.47
2023-03-07T20:27:57.127Z,98079.25
2023-03-07T20:30:23.974Z,98091.97
2023-03-07T20:32:50.560Z,98086.47
2023-03-07T20:35:17.152Z,98084.19
2023-03-07T20:37:43.708Z,98086.88
2023-03-07T20:40:10.967Z,98082.19
2023-03-07T20:42:37.466Z,98091.16
2023-03-07T20:45:04.523Z,98090.22
2023-03-07T20:47:34.111Z,98092.63
2023-03-07T20:50:01.134Z,98100.75
2023-03-07T20:52:27.689Z,98096.50
2023-03-07T20:54:54.233Z,98100.84
2023-03-07T20:57:20.664Z,98104.38
2023-03-07T20:59:48.999Z,98106.22
2023-03-07T21:02:15.500Z,98105.00
2023-03-07T21:04:41.964Z,98105.22
2023-03-07T21:07:08.504Z,98112.31
2023-03-07T21:09:35.209Z,98111.50
2023-03-07T21:12:01.887Z,98107.97
2023-03-07T21:14:28.420Z,98102.94
2023-03-07T21:16:55.016Z,98120.66
2023-03-07T21:19:21.526Z,98123.63
2023-03-07T21:21:47.959Z,98119.16
2023-03-07T21:24:15.529Z,98127.78
2023-03-07T21:26:42.468Z,98134.88
2023-03-07T21:29:10.741Z,98128.59
2023-03-07T21:31:38.804Z,98125.84
2023-03-07T21:34:13.236Z,98135.22
2023-03-07T21:36:39.712Z,98126.66
2023-03-07T21:39:09.797Z,98121.16
2023-03-07T21:41:36.462Z,98128.47
2023-03-07T21:44:03.186Z,98138.63
2023-03-07T21:46:29.758Z,98134.38
2023-03-07T21:48:59.914Z,98132.09
2023-03-07T21:51:26.612Z,98140.31
2023-03-07T21:53:53.858Z,98141.13
2023-03-07T21:56:21.196Z,98146.59
2023-03-07T21:58:49.693Z,98148.28
2023-03-07T22:01:27.474Z,98155.72
2023-03-07T22:03:55.931Z,98161.66
2023-03-07T22:06:24.706Z,98166.34
2023-03-07T22:08:51.248Z,98172.97
2023-03-07T22:11:17.704Z,98177.09
2023-03-07T22:13:44.351Z,98170.00
2023-03-07T22:16:13.038Z,98176.84
2023-03-07T22:18:39.760Z,98177.78
2023-03-07T22:21:11.507Z,98167.81
2023-03-07T22:23:37.982Z,98170.22
2023-03-07T22:26:06.528Z,98178.69
2023-03-07T22:28:33.689Z,98180.63
2023-03-07T22:31:02.352Z,98174.81
2023-03-07T22:33:28.910Z,98175.75
2023-03-07T22:35:59.367Z,98185.91
2023-03-07T22:38:26.308Z,98191.56
2023-03-07T22:40:52.931Z,98187.66
2023-03-07T22:43:19.451Z,98195.69
2023-03-07T22:45:50.466Z,98201.38
2023-03-07T22:48:17.097Z,98199.78
2023-03-07T22:50:44.185Z,98213.97
2023-03-07T22:53:10.707Z,98211.44
2023-03-07T22:55:41.626Z,98208.09
2023-03-07T22:58:09.068Z,98206.63
2023-03-07T23:00:36.752Z,98202.94
2023-03-07T23:03:03.619Z,98200.19
2023-03-07T23:05:33.711Z,98207.47
2023-03-07T23:08:01.301Z,98205.06
2023-03-07T23:10:28.925Z,98208.63
2023-03-07T23:12:55.526Z,98211.81
2023-03-07T23:15:22.674Z,98216.50
2023-03-07T23:17:49.287Z,98223.59
2023-03-07T23:20:16.168Z,98220.09
2023-03-07T23:22:42.946Z,98220.91
2023-03-07T23:25:11.016Z,98231.69
2023-03-07T23:27:37.923Z,98222.78
2023-03-07T23:30:05.949Z,98226.06
2023-03-07T23:32:32.723Z,98241.38
2023-03-07T23:34:59.617Z,98235.75
2023-03-07T23:37:26.150Z,98244.56
2023-03-07T23:39:52.803Z,98242.63
2023-03-07T23:42:19.998Z,98253.94
2023-03-07T23:44:49.630Z,98256.53
2023-03-07T23:47:16.780Z,98262.47
2023-03-07T23:49:43.653Z,98248.31
2023-03-07T23:52:10.218Z,98250.91
2023-03-07T23:54:36.742Z,98251.38
2023-03-07T23:57:03.254Z,98257.00
2023-03-07T23:59:29.685Z,98267.63
